TUI8932 LLBG-EDDF
Flight info
| Callsign | TUI8932 |
|---|---|
| Flight time | N/A |
| Altitude | 34000 |
| Route | SUVAS DCT TEZAK L324 SAFTA DCT MAROS DCT LUTIG DCT BENEM UN127 RIKSO DCT DISOR DCT LONTA UL608 DOLEV DCT YUYUH DCT SIMBA DCT AKINI T161 DEBHI DEBHI1B |
| Aircraft | B738/M-SDE2E3FGHIRWXY/LB1 |
Departure
| Time | 2026-05-06 08:05 |
|---|---|
| Airport | Ben Gurion International Airport (LLBG) |
Arrival
| Time | N/A |
|---|---|
| Airport | Frankfurt Main Airport (EDDF) |
| Time | Latitude | Longitude | Altitude | Speed | Heading |
|---|---|---|---|---|---|
| 2026-05-06 07:49 | 32.00619 | 34.86989 | 144 ft | 0 kts | 34° |
| 2026-05-06 07:50 | 32.00620 | 34.86989 | 144 ft | 0 kts | 34° |
| 2026-05-06 07:50 | 32.00624 | 34.86992 | 144 ft | 0 kts | 34° |
| 2026-05-06 07:50 | 32.00630 | 34.86998 | 144 ft | 1 kts | 35° |
| 2026-05-06 07:50 | 32.00639 | 34.87004 | 144 ft | 1 kts | 35° |
| 2026-05-06 07:51 | 32.00648 | 34.87012 | 144 ft | 2 kts | 34° |
| 2026-05-06 07:51 | 32.00675 | 34.87033 | 144 ft | 6 kts | 32° |
| 2026-05-06 07:51 | 32.00712 | 34.87080 | 144 ft | 9 kts | 73° |
| 2026-05-06 07:51 | 32.00722 | 34.87157 | 144 ft | 11 kts | 78° |
| 2026-05-06 07:52 | 32.00743 | 34.87259 | 144 ft | 14 kts | 75° |
| 2026-05-06 07:52 | 32.00757 | 34.87374 | 144 ft | 13 kts | 108° |
| 2026-05-06 07:52 | 32.00705 | 34.87478 | 144 ft | 16 kts | 122° |
| 2026-05-06 07:52 | 32.00641 | 34.87600 | 144 ft | 17 kts | 120° |
| 2026-05-06 07:53 | 32.00616 | 34.87712 | 144 ft | 8 kts | 53° |
| 2026-05-06 07:53 | 32.00631 | 34.87778 | 144 ft | 10 kts | 107° |
| 2026-05-06 07:53 | 32.00591 | 34.87859 | 144 ft | 10 kts | 123° |
| 2026-05-06 07:53 | 32.00555 | 34.87934 | 144 ft | 12 kts | 123° |
| 2026-05-06 07:54 | 32.00476 | 34.87951 | 144 ft | 12 kts | 173° |
| 2026-05-06 07:54 | 32.00417 | 34.88037 | 144 ft | 14 kts | 121° |
| 2026-05-06 07:54 | 32.00365 | 34.88132 | 144 ft | 13 kts | 121° |
| 2026-05-06 07:54 | 32.00314 | 34.88236 | 144 ft | 15 kts | 121° |
| 2026-05-06 07:55 | 32.00219 | 34.88416 | 144 ft | 16 kts | 121° |
| 2026-05-06 07:55 | 32.00151 | 34.88548 | 144 ft | 15 kts | 121° |
| 2026-05-06 07:55 | 32.00106 | 34.88652 | 145 ft | 13 kts | 94° |
| 2026-05-06 07:55 | 32.00157 | 34.88724 | 145 ft | 11 kts | 31° |
| 2026-05-06 07:56 | 32.00220 | 34.88764 | 145 ft | 9 kts | 28° |
| 2026-05-06 07:56 | 32.00226 | 34.88768 | 145 ft | 0 kts | 28° |
| 2026-05-06 07:56 | 32.00226 | 34.88769 | 145 ft | 0 kts | 28° |
| 2026-05-06 07:56 | 32.00231 | 34.88771 | 145 ft | 1 kts | 29° |
| 2026-05-06 07:57 | 32.00262 | 34.88792 | 145 ft | 9 kts | 29° |
| 2026-05-06 07:57 | 32.00333 | 34.88833 | 145 ft | 12 kts | 24° |
| 2026-05-06 07:57 | 32.00405 | 34.88879 | 145 ft | 10 kts | 31° |
| 2026-05-06 07:57 | 32.00464 | 34.88922 | 145 ft | 8 kts | 31° |
| 2026-05-06 07:58 | 32.00522 | 34.88960 | 145 ft | 11 kts | 28° |
| 2026-05-06 07:58 | 32.00606 | 34.89014 | 145 ft | 16 kts | 30° |
| 2026-05-06 07:58 | 32.00717 | 34.89091 | 145 ft | 20 kts | 31° |
| 2026-05-06 07:58 | 32.00860 | 34.89178 | 145 ft | 25 kts | 28° |
| 2026-05-06 07:59 | 32.01008 | 34.89276 | 145 ft | 23 kts | 29° |
| 2026-05-06 07:59 | 32.01144 | 34.89366 | 145 ft | 21 kts | 29° |
| 2026-05-06 07:59 | 32.01267 | 34.89446 | 145 ft | 19 kts | 29° |
| 2026-05-06 07:59 | 32.01379 | 34.89520 | 145 ft | 18 kts | 28° |
| 2026-05-06 08:00 | 32.01500 | 34.89595 | 145 ft | 21 kts | 28° |
| 2026-05-06 08:00 | 32.01642 | 34.89686 | 145 ft | 24 kts | 29° |
| 2026-05-06 08:00 | 32.01676 | 34.89709 | 145 ft | 2 kts | 32° |
| 2026-05-06 08:00 | 32.01713 | 34.89735 | 145 ft | 9 kts | 30° |
| 2026-05-06 08:01 | 32.01795 | 34.89790 | 145 ft | 15 kts | 43° |
| 2026-05-06 08:01 | 32.01825 | 34.89883 | 145 ft | 0 kts | 86° |
| 2026-05-06 08:01 | 32.01826 | 34.89900 | 145 ft | 3 kts | 92° |
| 2026-05-06 08:02 | 32.01813 | 34.89959 | 145 ft | 11 kts | 114° |
| 2026-05-06 08:02 | 32.01787 | 34.89995 | 145 ft | 0 kts | 144° |
| 2026-05-06 08:02 | 32.01786 | 34.89996 | 145 ft | 0 kts | 147° |
| 2026-05-06 08:03 | 32.01782 | 34.89997 | 145 ft | 0 kts | 174° |
| 2026-05-06 08:03 | 32.01761 | 34.89991 | 145 ft | 7 kts | 199° |
| 2026-05-06 08:03 | 32.01725 | 34.89973 | 145 ft | 0 kts | 207° |
| 2026-05-06 08:04 | 32.01703 | 34.89959 | 145 ft | 9 kts | 209° |
| 2026-05-06 08:04 | 32.01461 | 34.89801 | 145 ft | 70 kts | 208° |
| 2026-05-06 08:04 | 32.00857 | 34.89408 | 145 ft | 125 kts | 209° |
| 2026-05-06 08:04 | 31.99945 | 34.88817 | 151 ft | 170 kts | 208° |
| 2026-05-06 08:05 | 31.98957 | 34.88143 | 876 ft | 155 kts | 211° |
| 2026-05-06 08:05 | 31.98139 | 34.87328 | 1291 ft | 169 kts | 239° |
| 2026-05-06 08:05 | 31.97924 | 34.85903 | 1614 ft | 187 kts | 277° |
| 2026-05-06 08:05 | 31.98143 | 34.84445 | 2199 ft | 185 kts | 280° |
| 2026-05-06 08:06 | 31.98365 | 34.82861 | 2363 ft | 207 kts | 279° |
| 2026-05-06 08:06 | 31.98564 | 34.81125 | 2729 ft | 218 kts | 276° |
| 2026-05-06 08:06 | 31.98711 | 34.79363 | 3328 ft | 219 kts | 276° |
| 2026-05-06 08:06 | 31.98938 | 34.77561 | 3869 ft | 223 kts | 278° |
| 2026-05-06 08:07 | 31.99112 | 34.75790 | 4473 ft | 225 kts | 276° |
| 2026-05-06 08:07 | 31.99364 | 34.73882 | 4733 ft | 242 kts | 285° |
| 2026-05-06 08:07 | 31.99926 | 34.71984 | 5152 ft | 253 kts | 291° |
| 2026-05-06 08:07 | 32.00616 | 34.69996 | 5458 ft | 268 kts | 292° |
| 2026-05-06 08:08 | 32.01315 | 34.68029 | 6279 ft | 262 kts | 291° |
| 2026-05-06 08:08 | 32.01984 | 34.65982 | 6720 ft | 271 kts | 289° |
| 2026-05-06 08:08 | 32.02577 | 34.63891 | 7392 ft | 270 kts | 283° |
| 2026-05-06 08:08 | 32.02852 | 34.61699 | 7893 ft | 274 kts | 274° |
| 2026-05-06 08:09 | 32.02961 | 34.59460 | 7986 ft | 274 kts | 272° |
| 2026-05-06 08:09 | 32.03040 | 34.57230 | 7985 ft | 272 kts | 272° |
| 2026-05-06 08:09 | 32.03135 | 34.55013 | 7987 ft | 272 kts | 273° |
| 2026-05-06 08:09 | 32.03246 | 34.52796 | 7984 ft | 270 kts | 274° |
| 2026-05-06 08:10 | 32.03367 | 34.50562 | 8120 ft | 279 kts | 274° |
| 2026-05-06 08:10 | 32.03491 | 34.48324 | 8951 ft | 272 kts | 274° |
| 2026-05-06 08:10 | 32.03614 | 34.46117 | 9563 ft | 273 kts | 274° |
| 2026-05-06 08:10 | 32.03738 | 34.43887 | 10124 ft | 275 kts | 274° |
| 2026-05-06 08:11 | 32.03867 | 34.41601 | 10476 ft | 287 kts | 274° |
| 2026-05-06 08:11 | 32.04002 | 34.39203 | 10762 ft | 301 kts | 274° |
| 2026-05-06 08:11 | 32.04145 | 34.36696 | 10998 ft | 315 kts | 274° |
| 2026-05-06 08:11 | 32.04294 | 34.34067 | 11245 ft | 329 kts | 274° |
| 2026-05-06 08:12 | 32.04449 | 34.31322 | 11450 ft | 344 kts | 274° |
| 2026-05-06 08:12 | 32.04607 | 34.28474 | 11817 ft | 353 kts | 274° |
| 2026-05-06 08:12 | 32.04775 | 34.25598 | 12444 ft | 353 kts | 275° |
| 2026-05-06 08:12 | 32.05153 | 34.22742 | 13025 ft | 356 kts | 285° |
| 2026-05-06 08:13 | 32.06107 | 34.20062 | 13616 ft | 358 kts | 297° |
| 2026-05-06 08:13 | 32.07379 | 34.17531 | 14185 ft | 361 kts | 301° |
| 2026-05-06 08:13 | 32.08738 | 34.15050 | 14819 ft | 362 kts | 301° |
| 2026-05-06 08:13 | 32.10108 | 34.12555 | 15399 ft | 365 kts | 301° |
| 2026-05-06 08:14 | 32.11462 | 34.10028 | 16025 ft | 365 kts | 300° |
| 2026-05-06 08:14 | 32.12795 | 34.07479 | 16584 ft | 368 kts | 300° |
| 2026-05-06 08:14 | 32.14123 | 34.04898 | 17175 ft | 368 kts | 299° |
| 2026-05-06 08:14 | 32.15441 | 34.02310 | 17699 ft | 371 kts | 299° |
| 2026-05-06 08:15 | 32.16765 | 33.99701 | 18217 ft | 373 kts | 299° |
| 2026-05-06 08:15 | 32.18153 | 33.97110 | 18755 ft | 375 kts | 302° |
| 2026-05-06 08:15 | 32.19644 | 33.94582 | 19257 ft | 378 kts | 303° |
| 2026-05-06 08:15 | 32.21191 | 33.92066 | 19764 ft | 380 kts | 303° |
| 2026-05-06 08:16 | 32.22752 | 33.89546 | 20276 ft | 382 kts | 304° |
| 2026-05-06 08:16 | 32.24314 | 33.87013 | 20765 ft | 384 kts | 303° |
| 2026-05-06 08:16 | 32.25881 | 33.84456 | 21224 ft | 386 kts | 303° |
| 2026-05-06 08:16 | 32.27448 | 33.81882 | 21690 ft | 388 kts | 303° |
| 2026-05-06 08:17 | 32.29024 | 33.79284 | 22152 ft | 390 kts | 303° |
| 2026-05-06 08:17 | 32.30600 | 33.76674 | 22578 ft | 392 kts | 303° |
| 2026-05-06 08:17 | 32.32183 | 33.74049 | 23036 ft | 393 kts | 303° |
| 2026-05-06 08:17 | 32.33768 | 33.71413 | 23467 ft | 395 kts | 303° |
| 2026-05-06 08:18 | 32.35358 | 33.68762 | 23862 ft | 397 kts | 302° |
| 2026-05-06 08:18 | 32.36956 | 33.66095 | 24295 ft | 399 kts | 302° |
| 2026-05-06 08:18 | 32.38557 | 33.63419 | 24703 ft | 400 kts | 302° |
| 2026-05-06 08:18 | 32.40167 | 33.60727 | 25068 ft | 403 kts | 302° |
| 2026-05-06 08:19 | 32.41784 | 33.58020 | 25446 ft | 405 kts | 302° |
| 2026-05-06 08:19 | 32.43406 | 33.55305 | 25822 ft | 407 kts | 302° |
| 2026-05-06 08:19 | 32.45036 | 33.52578 | 26233 ft | 407 kts | 302° |
| 2026-05-06 08:19 | 32.46674 | 33.49835 | 26550 ft | 410 kts | 302° |
| 2026-05-06 08:20 | 32.48317 | 33.47078 | 26915 ft | 411 kts | 302° |
| 2026-05-06 08:20 | 32.49964 | 33.44310 | 27252 ft | 413 kts | 302° |
| 2026-05-06 08:20 | 32.51616 | 33.41533 | 27631 ft | 414 kts | 302° |
| 2026-05-06 08:20 | 32.53279 | 33.38735 | 27910 ft | 416 kts | 302° |
| 2026-05-06 08:21 | 32.54937 | 33.35946 | 28314 ft | 416 kts | 302° |
| 2026-05-06 08:21 | 32.56586 | 33.33173 | 28930 ft | 410 kts | 301° |
| 2026-05-06 08:21 | 32.58221 | 33.30423 | 29475 ft | 407 kts | 301° |
| 2026-05-06 08:21 | 32.59840 | 33.27697 | 29847 ft | 407 kts | 301° |
| 2026-05-06 08:22 | 32.61456 | 33.24967 | 30283 ft | 405 kts | 301° |
| 2026-05-06 08:22 | 32.63071 | 33.22237 | 30533 ft | 407 kts | 301° |
| 2026-05-06 08:22 | 32.64694 | 33.19490 | 30880 ft | 406 kts | 301° |
| 2026-05-06 08:22 | 32.66302 | 33.16772 | 31317 ft | 403 kts | 301° |
| 2026-05-06 08:23 | 32.67912 | 33.14046 | 31519 ft | 406 kts | 301° |
| 2026-05-06 08:23 | 32.69528 | 33.11306 | 31785 ft | 407 kts | 301° |
| 2026-05-06 08:23 | 32.71149 | 33.08560 | 32116 ft | 406 kts | 301° |
| 2026-05-06 08:23 | 32.72759 | 33.05833 | 32382 ft | 406 kts | 301° |
| 2026-05-06 08:24 | 32.74373 | 33.03095 | 32700 ft | 405 kts | 301° |
| 2026-05-06 08:24 | 32.75987 | 33.00355 | 32981 ft | 405 kts | 301° |
| 2026-05-06 08:24 | 32.77589 | 32.97629 | 33225 ft | 406 kts | 301° |
| 2026-05-06 08:24 | 32.79197 | 32.94890 | 33505 ft | 405 kts | 301° |
| 2026-05-06 08:25 | 32.80807 | 32.92147 | 33769 ft | 405 kts | 301° |
| 2026-05-06 08:25 | 32.82404 | 32.89426 | 34029 ft | 404 kts | 302° |
| 2026-05-06 08:25 | 32.85622 | 32.83938 | 34088 ft | 404 kts | 301° |
| 2026-05-06 08:26 | 32.88813 | 32.78497 | 34091 ft | 402 kts | 302° |
| 2026-05-06 08:26 | 32.92006 | 32.73040 | 34091 ft | 402 kts | 301° |
| 2026-05-06 08:27 | 32.95188 | 32.67585 | 34090 ft | 402 kts | 302° |
| 2026-05-06 08:27 | 32.98358 | 32.62143 | 34090 ft | 402 kts | 302° |
| 2026-05-06 08:28 | 33.01531 | 32.56689 | 34089 ft | 401 kts | 302° |
| 2026-05-06 08:28 | 33.04694 | 32.51244 | 34086 ft | 400 kts | 302° |
| 2026-05-06 08:29 | 33.07848 | 32.45813 | 34090 ft | 400 kts | 302° |
| 2026-05-06 08:29 | 33.11000 | 32.40377 | 34085 ft | 399 kts | 302° |
| 2026-05-06 08:30 | 33.14146 | 32.34943 | 34088 ft | 400 kts | 301° |
| 2026-05-06 08:30 | 33.17291 | 32.29501 | 34087 ft | 398 kts | 302° |
| 2026-05-06 08:31 | 33.20420 | 32.24071 | 34089 ft | 398 kts | 302° |
| 2026-05-06 08:31 | 33.23554 | 32.18626 | 34083 ft | 398 kts | 302° |
| 2026-05-06 08:32 | 33.26677 | 32.13198 | 34085 ft | 398 kts | 302° |
| 2026-05-06 08:32 | 33.29808 | 32.07749 | 34082 ft | 399 kts | 302° |
| 2026-05-06 08:33 | 33.32931 | 32.02311 | 34086 ft | 398 kts | 302° |
| 2026-05-06 08:33 | 33.36048 | 31.96872 | 34090 ft | 397 kts | 302° |
| 2026-05-06 08:34 | 33.40709 | 31.88720 | 34086 ft | 398 kts | 302° |
| 2026-05-06 08:35 | 33.43878 | 31.83321 | 34085 ft | 398 kts | 306° |
| 2026-05-06 08:35 | 33.48024 | 31.78900 | 34086 ft | 407 kts | 325° |
| 2026-05-06 08:36 | 33.53243 | 31.76146 | 34079 ft | 415 kts | 335° |
| 2026-05-06 08:36 | 33.58759 | 31.74067 | 34085 ft | 418 kts | 338° |
| 2026-05-06 08:37 | 33.64324 | 31.72115 | 34075 ft | 416 kts | 338° |
| 2026-05-06 08:37 | 33.69868 | 31.70157 | 34077 ft | 417 kts | 338° |
| 2026-05-06 08:38 | 33.75401 | 31.68139 | 34077 ft | 414 kts | 335° |
| 2026-05-06 08:38 | 33.80577 | 31.65291 | 34074 ft | 405 kts | 325° |
| 2026-05-06 08:39 | 33.85178 | 31.61479 | 34072 ft | 402 kts | 319° |
| 2026-05-06 08:39 | 33.89576 | 31.57342 | 34072 ft | 401 kts | 318° |
| 2026-05-06 08:40 | 33.93942 | 31.53167 | 34074 ft | 402 kts | 318° |
| 2026-05-06 08:40 | 33.98333 | 31.48984 | 34069 ft | 403 kts | 318° |
| 2026-05-06 08:41 | 34.02731 | 31.44811 | 34074 ft | 403 kts | 318° |
| 2026-05-06 08:41 | 34.07117 | 31.40646 | 34072 ft | 402 kts | 319° |
| 2026-05-06 08:42 | 34.11498 | 31.36484 | 34071 ft | 402 kts | 319° |
| 2026-05-06 08:42 | 34.15880 | 31.32315 | 34070 ft | 402 kts | 318° |
| 2026-05-06 08:43 | 34.20268 | 31.28138 | 34073 ft | 403 kts | 318° |
| 2026-05-06 08:43 | 34.24652 | 31.23951 | 34070 ft | 402 kts | 318° |
| 2026-05-06 08:44 | 34.29027 | 31.19774 | 34070 ft | 401 kts | 318° |
| 2026-05-06 08:44 | 34.33397 | 31.15596 | 34075 ft | 401 kts | 318° |
| 2026-05-06 08:45 | 34.37761 | 31.11415 | 34069 ft | 402 kts | 318° |
| 2026-05-06 08:45 | 34.42137 | 31.07219 | 34064 ft | 403 kts | 318° |
| 2026-05-06 08:46 | 34.46518 | 31.03011 | 34064 ft | 403 kts | 318° |
| 2026-05-06 08:46 | 34.50894 | 30.98801 | 34062 ft | 403 kts | 319° |
| 2026-05-06 08:47 | 34.55259 | 30.94598 | 34059 ft | 400 kts | 319° |
| 2026-05-06 08:47 | 34.59604 | 30.90408 | 34056 ft | 401 kts | 318° |
| 2026-05-06 08:48 | 34.63962 | 30.86210 | 34061 ft | 401 kts | 318° |
| 2026-05-06 08:48 | 34.68324 | 30.82043 | 34056 ft | 400 kts | 319° |
| 2026-05-06 08:49 | 34.72696 | 30.77869 | 34052 ft | 401 kts | 319° |
| 2026-05-06 08:49 | 34.77065 | 30.73691 | 34052 ft | 400 kts | 319° |
| 2026-05-06 08:50 | 34.81425 | 30.69517 | 34044 ft | 400 kts | 319° |
| 2026-05-06 08:50 | 34.85780 | 30.65336 | 34050 ft | 400 kts | 319° |
| 2026-05-06 08:51 | 34.90124 | 30.61158 | 34047 ft | 399 kts | 319° |
| 2026-05-06 08:51 | 34.94472 | 30.56971 | 34048 ft | 401 kts | 319° |
| 2026-05-06 08:52 | 34.98827 | 30.52772 | 34042 ft | 401 kts | 319° |
| 2026-05-06 08:52 | 35.03189 | 30.48559 | 34038 ft | 401 kts | 319° |
| 2026-05-06 08:53 | 35.07544 | 30.44350 | 34040 ft | 400 kts | 319° |
| 2026-05-06 08:53 | 35.11899 | 30.40131 | 34037 ft | 401 kts | 319° |
| 2026-05-06 08:54 | 35.16268 | 30.35895 | 34038 ft | 402 kts | 319° |
| 2026-05-06 08:54 | 35.20635 | 30.31654 | 34039 ft | 401 kts | 319° |
| 2026-05-06 08:55 | 35.24999 | 30.27411 | 34038 ft | 402 kts | 319° |
| 2026-05-06 08:55 | 35.29375 | 30.23153 | 34037 ft | 402 kts | 319° |
| 2026-05-06 08:56 | 35.33735 | 30.18901 | 34036 ft | 403 kts | 319° |
| 2026-05-06 08:56 | 35.38116 | 30.14623 | 34037 ft | 404 kts | 319° |
| 2026-05-06 08:57 | 35.42497 | 30.10334 | 34038 ft | 403 kts | 319° |
| 2026-05-06 08:57 | 35.46873 | 30.06043 | 34042 ft | 404 kts | 319° |
| 2026-05-06 08:58 | 35.51240 | 30.01758 | 34033 ft | 403 kts | 319° |
| 2026-05-06 08:58 | 35.55593 | 29.97421 | 34037 ft | 404 kts | 318° |
| 2026-05-06 08:59 | 35.59879 | 29.92979 | 34037 ft | 405 kts | 317° |
| 2026-05-06 08:59 | 35.64168 | 29.88499 | 34040 ft | 406 kts | 318° |
| 2026-05-06 09:00 | 35.68462 | 29.84023 | 34042 ft | 405 kts | 318° |
| 2026-05-06 09:00 | 35.72747 | 29.79556 | 34043 ft | 406 kts | 318° |
| 2026-05-06 09:01 | 35.77038 | 29.75084 | 34040 ft | 404 kts | 318° |
| 2026-05-06 09:01 | 35.81315 | 29.70624 | 34044 ft | 404 kts | 318° |
| 2026-05-06 09:02 | 35.85592 | 29.66159 | 34046 ft | 405 kts | 318° |
| 2026-05-06 09:02 | 35.89885 | 29.61669 | 34047 ft | 406 kts | 318° |
| 2026-05-06 09:03 | 35.94167 | 29.57188 | 34043 ft | 405 kts | 318° |
| 2026-05-06 09:03 | 35.98461 | 29.52686 | 34046 ft | 406 kts | 318° |
| 2026-05-06 09:04 | 36.02740 | 29.48189 | 34052 ft | 404 kts | 318° |
| 2026-05-06 09:04 | 36.07005 | 29.43699 | 34052 ft | 405 kts | 318° |
| 2026-05-06 09:05 | 36.11289 | 29.39185 | 34051 ft | 405 kts | 318° |
| 2026-05-06 09:05 | 36.15554 | 29.34683 | 34059 ft | 404 kts | 318° |
| 2026-05-06 09:06 | 36.19821 | 29.30185 | 34052 ft | 405 kts | 318° |
| 2026-05-06 09:06 | 36.24100 | 29.25702 | 34050 ft | 404 kts | 318° |
| 2026-05-06 09:07 | 36.28377 | 29.21219 | 34048 ft | 404 kts | 318° |
| 2026-05-06 09:07 | 36.32654 | 29.16729 | 34043 ft | 404 kts | 319° |
| 2026-05-06 09:08 | 36.36935 | 29.12226 | 34038 ft | 404 kts | 319° |
| 2026-05-06 09:08 | 36.41214 | 29.07716 | 34036 ft | 405 kts | 319° |
| 2026-05-06 09:09 | 36.45502 | 29.03192 | 34031 ft | 405 kts | 319° |
| 2026-05-06 09:09 | 36.49785 | 28.98665 | 34034 ft | 406 kts | 319° |
| 2026-05-06 09:10 | 36.54082 | 28.94120 | 34031 ft | 405 kts | 319° |
| 2026-05-06 09:10 | 36.58365 | 28.89581 | 34030 ft | 406 kts | 319° |
| 2026-05-06 09:11 | 36.62650 | 28.85029 | 34035 ft | 405 kts | 319° |
| 2026-05-06 09:11 | 36.66936 | 28.80469 | 34031 ft | 406 kts | 319° |
| 2026-05-06 09:12 | 36.71222 | 28.75909 | 34034 ft | 407 kts | 319° |
| 2026-05-06 09:12 | 36.75519 | 28.71357 | 34035 ft | 407 kts | 319° |
| 2026-05-06 09:13 | 36.79821 | 28.66798 | 34031 ft | 407 kts | 319° |
| 2026-05-06 09:13 | 36.84116 | 28.62236 | 34039 ft | 406 kts | 320° |
| 2026-05-06 09:14 | 36.88404 | 28.57672 | 34035 ft | 406 kts | 320° |
| 2026-05-06 09:14 | 36.92687 | 28.53101 | 34034 ft | 406 kts | 320° |
| 2026-05-06 09:15 | 36.96971 | 28.48523 | 34025 ft | 407 kts | 320° |
| 2026-05-06 09:15 | 37.01235 | 28.43963 | 34032 ft | 404 kts | 320° |
| 2026-05-06 09:16 | 37.05495 | 28.39403 | 34038 ft | 405 kts | 320° |
| 2026-05-06 09:16 | 37.09761 | 28.34824 | 34048 ft | 405 kts | 319° |
| 2026-05-06 09:17 | 37.14005 | 28.30228 | 34048 ft | 403 kts | 319° |
| 2026-05-06 09:17 | 37.18226 | 28.25646 | 34053 ft | 404 kts | 319° |
| 2026-05-06 09:18 | 37.22470 | 28.21068 | 34053 ft | 403 kts | 319° |
| 2026-05-06 09:18 | 37.26710 | 28.16493 | 34058 ft | 403 kts | 319° |
| 2026-05-06 09:19 | 37.30949 | 28.11911 | 34066 ft | 404 kts | 319° |
| 2026-05-06 09:19 | 37.35203 | 28.07311 | 34066 ft | 404 kts | 319° |
| 2026-05-06 09:20 | 37.39441 | 28.02717 | 34065 ft | 404 kts | 319° |
| 2026-05-06 09:20 | 37.43678 | 27.98115 | 34071 ft | 403 kts | 319° |
| 2026-05-06 09:21 | 37.47902 | 27.93520 | 34080 ft | 403 kts | 319° |
| 2026-05-06 09:21 | 37.52132 | 27.88910 | 34082 ft | 403 kts | 319° |
| 2026-05-06 09:22 | 37.56358 | 27.84304 | 34078 ft | 403 kts | 320° |
| 2026-05-06 09:22 | 37.60584 | 27.79685 | 34076 ft | 404 kts | 320° |
| 2026-05-06 09:23 | 37.64805 | 27.75066 | 34076 ft | 403 kts | 319° |
| 2026-05-06 09:23 | 37.69035 | 27.70427 | 34075 ft | 404 kts | 320° |
| 2026-05-06 09:24 | 37.73261 | 27.65788 | 34071 ft | 404 kts | 320° |
| 2026-05-06 09:24 | 37.77497 | 27.61132 | 34065 ft | 405 kts | 320° |
| 2026-05-06 09:25 | 37.81740 | 27.56465 | 34072 ft | 405 kts | 320° |
| 2026-05-06 09:25 | 37.85968 | 27.51794 | 34074 ft | 405 kts | 320° |
| 2026-05-06 09:26 | 37.90200 | 27.47114 | 34072 ft | 404 kts | 320° |
| 2026-05-06 09:26 | 37.94418 | 27.42440 | 34078 ft | 404 kts | 320° |
| 2026-05-06 09:27 | 37.98639 | 27.37766 | 34078 ft | 404 kts | 320° |
| 2026-05-06 09:27 | 38.02867 | 27.33073 | 34088 ft | 406 kts | 319° |
| 2026-05-06 09:28 | 38.07108 | 27.28357 | 34084 ft | 406 kts | 319° |
| 2026-05-06 09:28 | 38.11341 | 27.23644 | 34087 ft | 407 kts | 319° |
| 2026-05-06 09:29 | 38.15578 | 27.18918 | 34083 ft | 406 kts | 319° |
| 2026-05-06 09:29 | 38.19809 | 27.14189 | 34091 ft | 407 kts | 319° |
| 2026-05-06 09:30 | 38.24042 | 27.09456 | 34094 ft | 406 kts | 319° |
| 2026-05-06 09:30 | 38.28276 | 27.04710 | 34100 ft | 406 kts | 319° |
| 2026-05-06 09:31 | 38.32489 | 26.99987 | 34092 ft | 406 kts | 320° |
| 2026-05-06 09:31 | 38.36722 | 26.95296 | 34089 ft | 404 kts | 320° |
| 2026-05-06 09:32 | 38.40943 | 26.90647 | 34083 ft | 402 kts | 320° |
| 2026-05-06 09:32 | 38.45175 | 26.85976 | 34079 ft | 404 kts | 320° |
| 2026-05-06 09:33 | 38.49397 | 26.81303 | 34072 ft | 403 kts | 320° |
| 2026-05-06 09:33 | 38.53606 | 26.76632 | 34072 ft | 402 kts | 320° |
| 2026-05-06 09:34 | 38.57821 | 26.71946 | 34070 ft | 403 kts | 320° |
| 2026-05-06 09:34 | 38.62032 | 26.67265 | 34074 ft | 403 kts | 320° |
| 2026-05-06 09:35 | 38.66255 | 26.62578 | 34077 ft | 401 kts | 321° |
| 2026-05-06 09:35 | 38.70461 | 26.57903 | 34076 ft | 401 kts | 321° |
| 2026-05-06 09:36 | 38.74638 | 26.53187 | 34387 ft | 395 kts | 318° |
| 2026-05-06 09:36 | 38.76605 | 26.50834 | 34830 ft | 387 kts | 318° |
| 2026-05-06 09:36 | 38.78582 | 26.48430 | 34457 ft | 399 kts | 318° |
| 2026-05-06 09:36 | 38.80642 | 26.46029 | 34155 ft | 399 kts | 321° |
| 2026-05-06 09:37 | 38.82733 | 26.43732 | 34089 ft | 397 kts | 320° |
| 2026-05-06 09:37 | 38.86668 | 26.38713 | 34077 ft | 403 kts | 315° |
| 2026-05-06 09:38 | 38.90398 | 26.33382 | 34068 ft | 403 kts | 313° |
| 2026-05-06 09:38 | 38.94116 | 26.28032 | 34076 ft | 402 kts | 314° |
| 2026-05-06 09:39 | 38.97898 | 26.22789 | 34074 ft | 402 kts | 315° |
| 2026-05-06 09:39 | 39.01680 | 26.17537 | 34077 ft | 400 kts | 315° |
| 2026-05-06 09:40 | 39.05443 | 26.12263 | 34073 ft | 402 kts | 315° |
| 2026-05-06 09:40 | 39.11085 | 26.04309 | 34072 ft | 403 kts | 314° |
| 2026-05-06 09:41 | 39.14840 | 25.98995 | 34071 ft | 401 kts | 314° |
| 2026-05-06 09:41 | 39.18572 | 25.93701 | 34071 ft | 401 kts | 314° |
| 2026-05-06 09:42 | 39.22310 | 25.88394 | 34072 ft | 402 kts | 314° |
| 2026-05-06 09:42 | 39.26050 | 25.83075 | 34070 ft | 402 kts | 314° |
| 2026-05-06 09:43 | 39.29791 | 25.77745 | 34065 ft | 401 kts | 314° |
| 2026-05-06 09:43 | 39.33517 | 25.72425 | 34068 ft | 401 kts | 314° |
| 2026-05-06 09:44 | 39.37249 | 25.67097 | 34069 ft | 400 kts | 314° |
| 2026-05-06 09:44 | 39.40972 | 25.61766 | 34069 ft | 402 kts | 315° |
| 2026-05-06 09:45 | 39.44700 | 25.56412 | 34069 ft | 401 kts | 314° |
| 2026-05-06 09:45 | 39.48417 | 25.51068 | 34069 ft | 400 kts | 315° |
| 2026-05-06 09:46 | 39.52122 | 25.45731 | 34070 ft | 400 kts | 315° |
| 2026-05-06 09:46 | 39.55822 | 25.40392 | 34069 ft | 399 kts | 314° |
| 2026-05-06 09:47 | 39.59513 | 25.35059 | 34069 ft | 399 kts | 314° |
| 2026-05-06 09:47 | 39.63199 | 25.29727 | 34070 ft | 400 kts | 314° |
| 2026-05-06 09:48 | 39.66881 | 25.24387 | 34071 ft | 397 kts | 314° |
| 2026-05-06 09:48 | 39.70545 | 25.19070 | 34070 ft | 397 kts | 314° |
| 2026-05-06 09:49 | 39.74210 | 25.13738 | 34070 ft | 397 kts | 314° |
| 2026-05-06 09:49 | 39.77880 | 25.08393 | 34070 ft | 397 kts | 314° |
| 2026-05-06 09:50 | 39.81539 | 25.03058 | 34070 ft | 395 kts | 314° |
| 2026-05-06 09:50 | 39.85178 | 24.97735 | 34070 ft | 395 kts | 314° |
| 2026-05-06 09:51 | 39.88820 | 24.92397 | 34071 ft | 396 kts | 314° |
| 2026-05-06 09:51 | 39.92476 | 24.87030 | 34070 ft | 397 kts | 314° |
| 2026-05-06 09:52 | 39.96122 | 24.81670 | 34069 ft | 396 kts | 314° |
| 2026-05-06 09:52 | 39.99764 | 24.76303 | 34070 ft | 396 kts | 314° |
| 2026-05-06 09:53 | 40.03408 | 24.70932 | 34069 ft | 398 kts | 314° |
| 2026-05-06 09:53 | 40.07061 | 24.65540 | 34069 ft | 399 kts | 314° |
| 2026-05-06 09:54 | 40.10731 | 24.60108 | 34068 ft | 400 kts | 314° |
| 2026-05-06 09:54 | 40.14386 | 24.54684 | 34067 ft | 400 kts | 314° |
| 2026-05-06 09:55 | 40.18066 | 24.49218 | 34065 ft | 402 kts | 314° |
| 2026-05-06 09:55 | 40.21740 | 24.43748 | 34068 ft | 402 kts | 314° |
| 2026-05-06 09:56 | 40.25413 | 24.38276 | 34070 ft | 401 kts | 314° |
| 2026-05-06 09:56 | 40.29080 | 24.32795 | 34071 ft | 402 kts | 313° |
| 2026-05-06 09:57 | 40.32748 | 24.27305 | 34072 ft | 402 kts | 313° |
| 2026-05-06 09:57 | 40.36420 | 24.21800 | 34068 ft | 403 kts | 313° |
| 2026-05-06 09:58 | 40.40094 | 24.16288 | 34063 ft | 403 kts | 313° |
| 2026-05-06 09:58 | 40.43772 | 24.10762 | 34060 ft | 404 kts | 313° |
| 2026-05-06 09:59 | 40.47451 | 24.05223 | 34053 ft | 404 kts | 313° |
| 2026-05-06 09:59 | 40.51133 | 23.99661 | 34052 ft | 405 kts | 313° |
| 2026-05-06 10:00 | 40.54812 | 23.94098 | 34052 ft | 405 kts | 313° |
| 2026-05-06 10:00 | 40.58493 | 23.88517 | 34052 ft | 405 kts | 313° |
| 2026-05-06 10:01 | 40.62175 | 23.82930 | 34053 ft | 405 kts | 313° |
| 2026-05-06 10:01 | 40.65845 | 23.77350 | 34050 ft | 404 kts | 313° |
| 2026-05-06 10:02 | 40.69510 | 23.71767 | 34052 ft | 404 kts | 313° |
| 2026-05-06 10:02 | 40.73178 | 23.66170 | 34056 ft | 407 kts | 313° |
| 2026-05-06 10:03 | 40.76852 | 23.60551 | 34060 ft | 406 kts | 312° |
| 2026-05-06 10:03 | 40.80526 | 23.54920 | 34065 ft | 407 kts | 312° |
| 2026-05-06 10:04 | 40.84202 | 23.49283 | 34067 ft | 408 kts | 312° |
| 2026-05-06 10:04 | 40.87896 | 23.43603 | 34064 ft | 408 kts | 312° |
| 2026-05-06 10:05 | 40.91574 | 23.37931 | 34065 ft | 408 kts | 312° |
| 2026-05-06 10:05 | 40.95259 | 23.32245 | 34067 ft | 410 kts | 311° |
| 2026-05-06 10:06 | 40.98950 | 23.26542 | 34073 ft | 410 kts | 311° |
| 2026-05-06 10:06 | 41.02642 | 23.20821 | 34075 ft | 411 kts | 311° |
| 2026-05-06 10:07 | 41.06336 | 23.15088 | 34073 ft | 409 kts | 311° |
| 2026-05-06 10:07 | 41.10010 | 23.09376 | 34071 ft | 411 kts | 311° |
| 2026-05-06 10:08 | 41.13715 | 23.03607 | 34064 ft | 410 kts | 311° |
| 2026-05-06 10:08 | 41.17395 | 22.97857 | 34057 ft | 411 kts | 311° |
| 2026-05-06 10:09 | 41.21090 | 22.92080 | 34057 ft | 412 kts | 311° |
| 2026-05-06 10:09 | 41.24784 | 22.86295 | 34054 ft | 412 kts | 311° |
| 2026-05-06 10:10 | 41.28480 | 22.80499 | 34060 ft | 413 kts | 311° |
| 2026-05-06 10:10 | 41.32178 | 22.74684 | 34063 ft | 413 kts | 311° |
| 2026-05-06 10:11 | 41.35871 | 22.68861 | 34064 ft | 412 kts | 311° |
| 2026-05-06 10:11 | 41.39561 | 22.63033 | 34071 ft | 414 kts | 311° |
| 2026-05-06 10:12 | 41.43246 | 22.57203 | 34080 ft | 412 kts | 310° |
| 2026-05-06 10:12 | 41.46922 | 22.51376 | 34085 ft | 413 kts | 310° |
| 2026-05-06 10:13 | 41.50593 | 22.45544 | 34091 ft | 412 kts | 310° |
| 2026-05-06 10:13 | 41.54274 | 22.39690 | 34091 ft | 414 kts | 310° |
| 2026-05-06 10:14 | 41.57949 | 22.33826 | 34086 ft | 413 kts | 309° |
| 2026-05-06 10:14 | 41.61619 | 22.27962 | 34083 ft | 414 kts | 309° |
| 2026-05-06 10:15 | 41.65304 | 22.22067 | 34073 ft | 415 kts | 309° |
| 2026-05-06 10:15 | 41.68987 | 22.16160 | 34066 ft | 416 kts | 309° |
| 2026-05-06 10:16 | 41.72673 | 22.10236 | 34059 ft | 415 kts | 309° |
| 2026-05-06 10:16 | 41.76359 | 22.04300 | 34053 ft | 416 kts | 309° |
| 2026-05-06 10:17 | 41.80046 | 21.98353 | 34052 ft | 416 kts | 309° |
| 2026-05-06 10:17 | 41.83724 | 21.92411 | 34053 ft | 415 kts | 309° |
| 2026-05-06 10:18 | 41.87396 | 21.86467 | 34056 ft | 416 kts | 309° |
| 2026-05-06 10:18 | 41.91072 | 21.80498 | 34055 ft | 416 kts | 309° |
| 2026-05-06 10:19 | 41.94751 | 21.74515 | 34049 ft | 416 kts | 309° |
| 2026-05-06 10:19 | 41.98420 | 21.68545 | 34049 ft | 417 kts | 309° |
| 2026-05-06 10:20 | 42.02099 | 21.62540 | 34048 ft | 417 kts | 309° |
| 2026-05-06 10:20 | 42.05765 | 21.56543 | 34053 ft | 418 kts | 309° |
| 2026-05-06 10:21 | 42.09431 | 21.50532 | 34061 ft | 417 kts | 309° |
| 2026-05-06 10:21 | 42.13104 | 21.44503 | 34067 ft | 419 kts | 309° |
| 2026-05-06 10:22 | 42.16782 | 21.38463 | 34072 ft | 418 kts | 309° |
| 2026-05-06 10:22 | 42.20521 | 21.32492 | 34073 ft | 418 kts | 309° |
| 2026-05-06 10:23 | 42.24282 | 21.26564 | 34068 ft | 418 kts | 309° |
| 2026-05-06 10:23 | 42.28039 | 21.20620 | 34073 ft | 418 kts | 309° |
| 2026-05-06 10:24 | 42.31806 | 21.14646 | 34081 ft | 418 kts | 309° |
| 2026-05-06 10:24 | 42.35581 | 21.08633 | 34087 ft | 420 kts | 309° |
| 2026-05-06 10:25 | 42.39334 | 21.02630 | 34091 ft | 419 kts | 309° |
| 2026-05-06 10:25 | 42.43084 | 20.96617 | 34091 ft | 419 kts | 309° |
| 2026-05-06 10:26 | 42.46864 | 20.90544 | 34087 ft | 422 kts | 309° |
| 2026-05-06 10:26 | 42.50626 | 20.84492 | 34077 ft | 421 kts | 309° |
| 2026-05-06 10:27 | 42.54378 | 20.78444 | 34076 ft | 422 kts | 309° |
| 2026-05-06 10:27 | 42.58137 | 20.72364 | 34077 ft | 423 kts | 309° |
| 2026-05-06 10:28 | 42.61897 | 20.66278 | 34074 ft | 423 kts | 309° |
| 2026-05-06 10:28 | 42.65653 | 20.60183 | 34073 ft | 422 kts | 309° |
| 2026-05-06 10:29 | 42.69407 | 20.54079 | 34066 ft | 423 kts | 308° |
| 2026-05-06 10:29 | 42.73161 | 20.47970 | 34064 ft | 423 kts | 308° |
| 2026-05-06 10:30 | 42.76907 | 20.41858 | 34083 ft | 422 kts | 308° |
| 2026-05-06 10:30 | 42.80660 | 20.35716 | 34095 ft | 424 kts | 308° |
| 2026-05-06 10:31 | 42.84404 | 20.29580 | 34097 ft | 424 kts | 308° |
| 2026-05-06 10:31 | 42.88166 | 20.23403 | 34096 ft | 425 kts | 308° |
| 2026-05-06 10:32 | 42.91917 | 20.17231 | 34095 ft | 425 kts | 308° |
| 2026-05-06 10:32 | 42.95675 | 20.11040 | 34094 ft | 425 kts | 308° |
| 2026-05-06 10:33 | 42.99427 | 20.04843 | 34094 ft | 426 kts | 308° |
| 2026-05-06 10:33 | 43.03185 | 19.98621 | 34093 ft | 425 kts | 308° |
| 2026-05-06 10:34 | 43.06926 | 19.92412 | 34094 ft | 425 kts | 307° |
| 2026-05-06 10:34 | 43.10669 | 19.86182 | 34093 ft | 426 kts | 307° |
| 2026-05-06 10:35 | 43.11294 | 19.85141 | 34091 ft | 426 kts | 307° |